createdAt,value
2019-03-13T00:01:34.608Z,99120.42
2019-03-13T00:04:03.217Z,99117.82
2019-03-13T00:06:31.665Z,99113.59
2019-03-13T00:09:00.344Z,99123.38
2019-03-13T00:11:32.051Z,99118.36
2019-03-13T00:14:00.684Z,99123.27
2019-03-13T00:16:29.816Z,99119.73
2019-03-13T00:18:58.295Z,99125.08
2019-03-13T00:21:26.857Z,99120.17
2019-03-13T00:23:55.468Z,99124.36
2019-03-13T00:26:23.913Z,99124.69
2019-03-13T00:28:52.553Z,99141.63
2019-03-13T00:31:21.522Z,99169.11
2019-03-13T00:33:50.500Z,99207.73
2019-03-13T00:36:18.990Z,99229.84
2019-03-13T00:38:49.060Z,99260.14
2019-03-13T00:41:17.689Z,99254.27
2019-03-13T00:43:46.224Z,99281.70
2019-03-13T00:46:14.779Z,99279.98
2019-03-13T00:48:43.510Z,99292.39
2019-03-13T00:51:16.563Z,99304.85
2019-03-13T00:53:45.113Z,99305.63
2019-03-13T00:56:13.705Z,99323.05
2019-03-13T00:58:43.502Z,99317.95
2019-03-13T01:01:29.642Z,99314.36
2019-03-13T01:04:00.864Z,99322.64
2019-03-13T01:06:30.996Z,99332.98
2019-03-13T01:08:59.586Z,99326.53
2019-03-13T01:11:28.192Z,99336.51
2019-03-13T01:13:56.619Z,99334.73
2019-03-13T01:16:25.255Z,99339.33
2019-03-13T01:18:56.468Z,99347.84
2019-03-13T01:21:25.005Z,99344.84
2019-03-13T01:23:53.600Z,99350.72
2019-03-13T01:26:22.098Z,99357.88
2019-03-13T01:28:51.870Z,99375.22
2019-03-13T01:31:22.128Z,99367.36
2019-03-13T01:33:51.016Z,99376.89
2019-03-13T01:36:20.958Z,99377.40
2019-03-13T01:38:52.553Z,99388.98
2019-03-13T01:41:21.274Z,99398.02
2019-03-13T01:43:49.856Z,99402.35
2019-03-13T01:46:18.336Z,99406.09
2019-03-13T01:48:46.841Z,99399.23
2019-03-13T01:51:15.502Z,99414.00
2019-03-13T01:53:44.136Z,99419.75
2019-03-13T01:56:12.592Z,99413.67
2019-03-13T01:58:41.358Z,99423.78
2019-03-13T02:01:11.538Z,99418.61
2019-03-13T02:03:40.119Z,99432.48
2019-03-13T02:06:08.723Z,99419.94
2019-03-13T02:08:37.228Z,99433.17
2019-03-13T02:11:05.760Z,99438.17
2019-03-13T02:13:34.292Z,99444.44
2019-03-13T02:16:02.856Z,99434.91
2019-03-13T02:18:31.305Z,99450.45
2019-03-13T02:20:59.790Z,99451.87
2019-03-13T02:23:28.612Z,99451.39
2019-03-13T02:25:57.113Z,99459.45
2019-03-13T02:28:25.695Z,99449.05
2019-03-13T02:30:54.249Z,99447.95
2019-03-13T02:33:23.107Z,99448.16
2019-03-13T02:35:51.569Z,99443.86
2019-03-13T02:38:20.178Z,99436.40
2019-03-13T02:40:48.642Z,99443.12
2019-03-13T02:43:17.185Z,99449.06
2019-03-13T02:45:45.652Z,99449.83
2019-03-13T02:48:14.325Z,99445.33
2019-03-13T02:50:42.816Z,99442.65
2019-03-13T02:53:11.286Z,99447.89
2019-03-13T02:55:39.895Z,99443.12
2019-03-13T02:58:08.349Z,99438.19
2019-03-13T03:00:47.663Z,99443.43
2019-03-13T03:03:20.941Z,99442.85
2019-03-13T03:05:49.457Z,99437.69
2019-03-13T03:08:17.950Z,99439.91
2019-03-13T03:10:46.460Z,99434.59
2019-03-13T03:13:14.914Z,99430.56
2019-03-13T03:15:43.407Z,99433.72
2019-03-13T03:18:11.975Z,99432.59
2019-03-13T03:20:40.463Z,99435.98
2019-03-13T03:23:08.914Z,99430.88
2019-03-13T03:25:37.546Z,99430.25
2019-03-13T03:28:06.094Z,99425.82
2019-03-13T03:30:34.722Z,99424.88
2019-03-13T03:33:03.219Z,99437.47
2019-03-13T03:35:31.772Z,99420.84
2019-03-13T03:38:00.293Z,99434.52
2019-03-13T03:40:28.780Z,99427.87
2019-03-13T03:42:57.350Z,99431.53
2019-03-13T03:45:25.818Z,99442.78
2019-03-13T03:47:54.314Z,99440.09
2019-03-13T03:50:22.910Z,99434.59
2019-03-13T03:52:51.395Z,99444.83
2019-03-13T03:55:20.036Z,99437.27
2019-03-13T03:57:48.560Z,99439.25
2019-03-13T04:00:20.678Z,99450.58
2019-03-13T04:02:49.320Z,99439.83
2019-03-13T04:05:18.065Z,99438.55
2019-03-13T04:07:46.709Z,99441.72
2019-03-13T04:10:15.950Z,99442.02
2019-03-13T04:12:44.605Z,99446.11
2019-03-13T04:15:16.982Z,99441.38
2019-03-13T04:17:45.527Z,99438.77
2019-03-13T04:20:15.184Z,99438.13
2019-03-13T04:22:43.742Z,99442.02
2019-03-13T04:25:46.242Z,99437.36
2019-03-13T04:28:14.709Z,99431.07
2019-03-13T04:30:43.248Z,99443.30
2019-03-13T04:33:11.728Z,99441.95
2019-03-13T04:35:40.276Z,99434.86
2019-03-13T04:38:08.775Z,99448.17
2019-03-13T04:40:37.252Z,99428.16
2019-03-13T04:43:05.724Z,99421.16
2019-03-13T04:45:34.208Z,99428.09
2019-03-13T04:48:02.666Z,99427.75
2019-03-13T04:50:31.172Z,99418.28
2019-03-13T04:53:21.369Z,99413.81
2019-03-13T04:55:52.425Z,99420.67
2019-03-13T04:58:20.213Z,99421.73
2019-03-13T05:00:48.771Z,99418.98
2019-03-13T05:03:18.764Z,99416.84
2019-03-13T05:05:48.937Z,99406.73
2019-03-13T05:08:45.003Z,99384.75
2019-03-13T05:11:06.374Z,99391.61
2019-03-13T05:13:34.897Z,99390.47
2019-03-13T05:16:03.461Z,99388.62
2019-03-13T05:18:31.947Z,99399.67
2019-03-13T05:21:00.432Z,99403.97
2019-03-13T05:23:28.878Z,99410.28
2019-03-13T05:25:57.400Z,99404.03
2019-03-13T05:28:25.881Z,99392.45
2019-03-13T05:30:54.428Z,99400.38
2019-03-13T05:33:22.879Z,99396.21
2019-03-13T05:35:51.520Z,99392.38
2019-03-13T05:38:19.986Z,99389.05
2019-03-13T05:40:48.445Z,99382.00
2019-03-13T05:43:16.899Z,99333.06
2019-03-13T05:45:45.369Z,99384.11
2019-03-13T05:48:13.848Z,99383.97
2019-03-13T05:50:42.391Z,99386.44
2019-03-13T05:53:10.856Z,99385.39
2019-03-13T05:55:39.329Z,99382.13
2019-03-13T05:58:07.803Z,99377.67
2019-03-13T06:00:36.332Z,99379.31
2019-03-13T06:03:07.592Z,99377.89
2019-03-13T06:05:37.858Z,99386.94
2019-03-13T06:08:06.323Z,99385.95
2019-03-13T06:10:34.785Z,99387.00
2019-03-13T06:13:03.264Z,99382.20
2019-03-13T06:15:31.809Z,99380.22
2019-03-13T06:18:00.303Z,99384.10
2019-03-13T06:20:28.769Z,99367.82
2019-03-13T06:22:57.266Z,99368.61
2019-03-13T06:25:25.859Z,99373.15
2019-03-13T06:27:54.357Z,99378.71
2019-03-13T06:30:23.025Z,99373.78
2019-03-13T06:32:51.501Z,99368.40
2019-03-13T06:35:23.436Z,99382.69
2019-03-13T06:37:50.304Z,99372.44
2019-03-13T06:40:20.382Z,99376.80
2019-03-13T06:42:48.872Z,99382.38
2019-03-13T06:45:17.601Z,99380.05
2019-03-13T06:47:46.261Z,99375.48
2019-03-13T06:50:22.902Z,99375.42
2019-03-13T06:52:51.403Z,99370.20
2019-03-13T06:55:20.013Z,99371.08
2019-03-13T06:57:48.536Z,99356.91
2019-03-13T07:00:20.740Z,99367.23
2019-03-13T07:03:02.688Z,99370.22
2019-03-13T07:05:35.818Z,99365.53
2019-03-13T07:08:14.898Z,99371.89
2019-03-13T07:11:01.288Z,99366.06
2019-03-13T07:13:46.549Z,99365.45
2019-03-13T07:16:22.636Z,99384.42
2019-03-13T07:18:52.830Z,99376.63
2019-03-13T07:21:23.583Z,99364.19
2019-03-13T07:23:53.813Z,99375.84
2019-03-13T07:26:26.350Z,99383.70
2019-03-13T07:29:12.452Z,99376.04
2019-03-13T07:31:42.656Z,99378.70
2019-03-13T07:34:15.356Z,99369.71
2019-03-13T07:36:48.324Z,99385.38
2019-03-13T07:39:18.461Z,99387.53
2019-03-13T07:41:57.608Z,99384.45
2019-03-13T07:44:30.470Z,99387.20
2019-03-13T07:47:00.581Z,99382.03
2019-03-13T07:49:45.353Z,99374.55
2019-03-13T07:52:32.978Z,99377.43
2019-03-13T07:55:19.132Z,99375.66
2019-03-13T07:58:01.420Z,99392.47
2019-03-13T08:00:37.664Z,99362.96
2019-03-13T08:03:19.897Z,99364.94
2019-03-13T08:06:06.208Z,99363.59
2019-03-13T08:08:39.026Z,99360.69
2019-03-13T08:11:24.492Z,99355.58
2019-03-13T08:13:54.691Z,99355.33
2019-03-13T08:16:24.818Z,99356.40
2019-03-13T08:19:07.134Z,99375.53
2019-03-13T08:21:43.158Z,99371.16
2019-03-13T08:24:22.356Z,99365.39
2019-03-13T08:26:52.491Z,99364.99
2019-03-13T08:29:22.688Z,99370.77
2019-03-13T08:31:55.847Z,99372.70
2019-03-13T08:34:31.658Z,99352.89
2019-03-13T08:37:07.491Z,99351.91
2019-03-13T08:39:40.307Z,99348.23
2019-03-13T08:42:26.600Z,99342.12
2019-03-13T08:45:07.705Z,99349.22
2019-03-13T08:47:46.522Z,99346.63
2019-03-13T08:50:25.453Z,99337.66
2019-03-13T08:53:13.921Z,99341.84
2019-03-13T08:55:52.829Z,99280.92
2019-03-13T08:58:34.972Z,99322.94
2019-03-13T09:01:08.152Z,99322.16
2019-03-13T09:03:38.271Z,99327.35
2019-03-13T09:06:11.259Z,99322.62
2019-03-13T09:08:41.408Z,99322.16
2019-03-13T09:11:27.855Z,99259.16
2019-03-13T09:13:58.078Z,99325.11
2019-03-13T09:16:28.272Z,99311.89
2019-03-13T09:19:04.161Z,99323.41
2019-03-13T09:21:34.315Z,99316.81
2019-03-13T09:24:16.615Z,99321.50
2019-03-13T09:26:46.771Z,99324.23
2019-03-13T09:29:22.666Z,99284.73
2019-03-13T09:31:52.925Z,99319.95
2019-03-13T09:34:39.456Z,99311.88
2019-03-13T09:37:21.670Z,99309.55
2019-03-13T09:40:00.575Z,99310.06
2019-03-13T09:42:47.287Z,99298.81
2019-03-13T09:45:17.569Z,99293.98
2019-03-13T09:47:53.257Z,99297.51
2019-03-13T09:50:25.907Z,99300.52
2019-03-13T09:53:07.640Z,99283.49
2019-03-13T09:55:53.975Z,99291.32
2019-03-13T09:58:27.235Z,99276.19
2019-03-13T10:01:09.360Z,99269.11
2019-03-13T10:03:42.008Z,99274.10
2019-03-13T10:06:12.166Z,99293.55
2019-03-13T10:08:48.433Z,99279.63
2019-03-13T10:11:18.576Z,99277.66
2019-03-13T10:14:03.641Z,99277.95
2019-03-13T10:16:42.040Z,99263.82
2019-03-13T10:19:12.087Z,99278.13
2019-03-13T10:21:44.911Z,99274.16
2019-03-13T10:24:20.711Z,99267.66
2019-03-13T10:27:02.453Z,99277.00
2019-03-13T10:29:32.549Z,99269.42
2019-03-13T10:32:02.837Z,99277.53
2019-03-13T10:34:35.831Z,99266.39
2019-03-13T10:37:11.864Z,99266.39
2019-03-13T10:39:41.957Z,99278.77
2019-03-13T10:42:20.613Z,99270.29
2019-03-13T10:44:50.736Z,99256.63
2019-03-13T10:47:37.098Z,99268.64
2019-03-13T10:50:09.608Z,99263.91
2019-03-13T10:52:51.730Z,99274.45
2019-03-13T10:55:40.416Z,99263.13
2019-03-13T10:58:16.443Z,99264.72
2019-03-13T11:00:46.580Z,99259.34
2019-03-13T11:03:16.788Z,99246.09
2019-03-13T11:05:56.076Z,99252.58
2019-03-13T11:11:13.332Z,99254.58
2019-03-13T11:13:43.476Z,99251.63
2019-03-13T11:16:22.561Z,99255.97
2019-03-13T11:19:01.544Z,99267.36
2019-03-13T11:21:48.208Z,99258.13
2019-03-13T11:24:21.281Z,99264.98
2019-03-13T11:26:54.190Z,99250.25
2019-03-13T11:29:24.401Z,99242.73
2019-03-13T11:32:00.345Z,99261.95
2019-03-13T11:34:36.356Z,99250.78
2019-03-13T11:37:18.407Z,99260.98
2019-03-13T11:39:51.256Z,99266.17
2019-03-13T11:45:30.186Z,99262.69
2019-03-13T11:48:12.288Z,99255.55
2019-03-13T11:50:48.244Z,99250.59
2019-03-13T11:53:21.100Z,99250.24
2019-03-13T11:55:51.273Z,99254.23
2019-03-13T11:58:27.363Z,99266.17
2019-03-13T12:00:57.628Z,99258.45
2019-03-13T12:03:30.527Z,99191.41
2019-03-13T12:06:00.731Z,99242.61
2019-03-13T12:08:47.026Z,99238.87
2019-03-13T12:11:33.132Z,99232.47
2019-03-13T12:14:03.330Z,99230.80
2019-03-13T12:19:34.963Z,99240.08
2019-03-13T12:22:10.819Z,99226.06
2019-03-13T12:27:52.077Z,99213.30
2019-03-13T12:30:37.520Z,99228.50
2019-03-13T12:33:07.623Z,99207.41
2019-03-13T12:35:54.392Z,99206.20
2019-03-13T12:38:27.614Z,99201.70
2019-03-13T12:41:14.073Z,99201.55
2019-03-13T12:43:44.199Z,99202.57
2019-03-13T12:46:17.279Z,99193.30
2019-03-13T12:48:53.815Z,99195.94
2019-03-13T12:51:40.108Z,99188.67
2019-03-13T12:54:19.199Z,99185.33
2019-03-13T12:57:01.009Z,99194.75
2019-03-13T12:59:49.323Z,99177.07
2019-03-13T13:02:24.927Z,99175.74
2019-03-13T13:05:07.125Z,99193.00
2019-03-13T13:07:42.996Z,99164.61
2019-03-13T13:10:19.272Z,99172.91
2019-03-13T13:12:52.417Z,99169.64
2019-03-13T13:15:38.645Z,99169.91
2019-03-13T13:18:25.085Z,99161.47
2019-03-13T13:20:53.556Z,99169.02
2019-03-13T13:23:22.021Z,99158.23
2019-03-13T13:25:50.597Z,99158.57
2019-03-13T13:28:19.219Z,99156.84
2019-03-13T13:30:47.750Z,99159.26
2019-03-13T13:33:16.306Z,99152.61
2019-03-13T13:35:44.758Z,99145.19
2019-03-13T13:38:13.225Z,99152.49
2019-03-13T13:40:42.572Z,99139.39
2019-03-13T13:43:11.069Z,99138.22
2019-03-13T13:45:42.297Z,99134.60
2019-03-13T13:48:12.325Z,99126.82
2019-03-13T13:50:40.775Z,99124.22
2019-03-13T13:53:09.249Z,99125.45
2019-03-13T13:55:37.866Z,99126.04
2019-03-13T13:58:06.397Z,99120.90
2019-03-13T14:00:34.951Z,99115.90
2019-03-13T14:03:03.426Z,99136.06
2019-03-13T14:05:31.926Z,99119.40
2019-03-13T14:08:00.415Z,99127.72
2019-03-13T14:10:29.034Z,99131.33
2019-03-13T14:12:57.743Z,99132.58
2019-03-13T14:15:26.301Z,99128.03
2019-03-13T14:17:54.828Z,99135.33
2019-03-13T14:20:23.441Z,99133.14
2019-03-13T14:22:52.029Z,99131.36
2019-03-13T14:25:20.711Z,99127.44
2019-03-13T14:27:49.237Z,99115.32
2019-03-13T14:30:19.897Z,99117.33
2019-03-13T14:32:48.348Z,99123.64
2019-03-13T14:35:16.941Z,99123.48
2019-03-13T14:37:45.465Z,99121.07
2019-03-13T14:40:19.289Z,99143.69
2019-03-13T14:42:47.804Z,99117.70
2019-03-13T14:45:57.911Z,99117.41
2019-03-13T14:48:26.434Z,99110.80
2019-03-13T14:50:54.991Z,99109.81
2019-03-13T14:53:23.435Z,99105.36
2019-03-13T14:55:52.018Z,99115.94
2019-03-13T14:58:20.541Z,99116.90
2019-03-13T15:00:50.667Z,99109.09
2019-03-13T15:03:19.143Z,99117.56
2019-03-13T15:05:47.619Z,99122.92
2019-03-13T15:08:16.070Z,99113.50
2019-03-13T15:10:45.460Z,99118.52
2019-03-13T15:13:13.921Z,99123.51
2019-03-13T15:15:45.340Z,99115.45
2019-03-13T15:18:13.803Z,99107.44
2019-03-13T15:20:42.272Z,99101.55
2019-03-13T15:23:10.874Z,99108.27
2019-03-13T15:25:39.394Z,99102.68
2019-03-13T15:28:07.867Z,99098.49
2019-03-13T15:30:36.408Z,99100.71
2019-03-13T15:33:04.964Z,99099.09
2019-03-13T15:35:33.423Z,99092.84
2019-03-13T15:38:04.695Z,99093.32
2019-03-13T15:40:38.164Z,99093.80
2019-03-13T15:43:11.134Z,99098.52
2019-03-13T15:45:39.685Z,99098.12
2019-03-13T15:48:08.191Z,99096.78
2019-03-13T15:50:36.716Z,99084.71
2019-03-13T15:53:05.273Z,99103.62
2019-03-13T15:55:36.549Z,99097.03
2019-03-13T15:58:05.171Z,99103.73
2019-03-13T16:00:33.849Z,99101.33
2019-03-13T16:03:02.412Z,99096.89
2019-03-13T16:05:30.879Z,99113.03
2019-03-13T16:07:59.436Z,99096.27
2019-03-13T16:10:27.917Z,99103.62
2019-03-13T16:12:58.122Z,99091.66
2019-03-13T16:15:29.380Z,99093.25
2019-03-13T16:17:57.829Z,99096.60
2019-03-13T16:20:26.365Z,99075.84
2019-03-13T16:22:59.062Z,99081.80
2019-03-13T16:25:27.671Z,99080.89
2019-03-13T16:27:56.205Z,99081.80
2019-03-13T16:30:28.053Z,99101.80
2019-03-13T16:32:56.572Z,99079.23
2019-03-13T16:35:27.841Z,99078.72
2019-03-13T16:37:56.383Z,99084.49
2019-03-13T16:40:24.929Z,99088.63
2019-03-13T16:42:53.413Z,99080.35
2019-03-13T16:45:22.529Z,99091.69
2019-03-13T16:47:51.126Z,99080.89
2019-03-13T16:50:38.797Z,99087.17
2019-03-13T16:53:07.416Z,99088.98
2019-03-13T16:55:36.025Z,99089.92
2019-03-13T16:58:04.753Z,99091.72
2019-03-13T17:00:34.259Z,99098.35
2019-03-13T17:03:02.861Z,99095.25
2019-03-13T17:05:31.394Z,99085.41
2019-03-13T17:07:59.986Z,99091.32
2019-03-13T17:10:32.425Z,99074.55
2019-03-13T17:13:00.894Z,99043.39
2019-03-13T17:15:32.455Z,99083.06
2019-03-13T17:18:00.924Z,99086.84
2019-03-13T17:20:35.524Z,99084.84
2019-03-13T17:23:03.741Z,99082.56
2019-03-13T17:25:32.255Z,99072.97
2019-03-13T17:28:02.680Z,99071.08
2019-03-13T17:30:32.548Z,99081.46
2019-03-13T17:33:02.298Z,99083.77
2019-03-13T17:35:30.872Z,99083.81
2019-03-13T17:37:59.468Z,99082.90
2019-03-13T17:40:30.411Z,99083.91
2019-03-13T17:42:59.119Z,99082.90
2019-03-13T17:45:27.757Z,99082.06
2019-03-13T17:47:56.326Z,99081.97
2019-03-13T17:50:25.327Z,99086.31
2019-03-13T17:52:54.232Z,99098.55
2019-03-13T17:55:30.628Z,99078.68
2019-03-13T17:57:59.143Z,99082.06
2019-03-13T18:00:31.094Z,99079.19
2019-03-13T18:02:59.652Z,99064.45
2019-03-13T18:05:31.167Z,99063.76
2019-03-13T18:07:59.674Z,99054.69
2019-03-13T18:10:28.140Z,99057.55
2019-03-13T18:12:56.638Z,99062.31
2019-03-13T18:15:25.439Z,99052.41
2019-03-13T18:17:53.995Z,99056.58
2019-03-13T18:20:24.196Z,99056.25
2019-03-13T18:22:54.473Z,99056.75
2019-03-13T18:25:25.680Z,99057.73
2019-03-13T18:27:54.162Z,99045.28
2019-03-13T18:30:38.798Z,99049.17
2019-03-13T18:33:07.485Z,99045.18
2019-03-13T18:35:36.200Z,99057.23
2019-03-13T18:38:06.829Z,99042.81
2019-03-13T18:40:35.322Z,99045.02
2019-03-13T18:43:03.927Z,99040.94
2019-03-13T18:45:56.793Z,99037.20
2019-03-13T18:48:25.352Z,99029.60
2019-03-13T18:50:55.175Z,99040.41
2019-03-13T18:53:23.612Z,99041.95
2019-03-13T18:55:53.954Z,99045.99
2019-03-13T18:58:22.922Z,99041.09
2019-03-13T19:00:51.519Z,99043.27
2019-03-13T19:03:22.229Z,99045.12
2019-03-13T19:05:50.366Z,99043.08
2019-03-13T19:08:19.008Z,99040.39
2019-03-13T19:10:47.600Z,99034.04
2019-03-13T19:13:16.107Z,99031.86
2019-03-13T19:15:44.819Z,99024.13
2019-03-13T19:18:13.281Z,99032.05
2019-03-13T19:20:43.325Z,99025.47
2019-03-13T19:23:14.245Z,99034.08
2019-03-13T19:25:42.575Z,99034.91
2019-03-13T19:28:19.835Z,99055.44
2019-03-13T19:30:48.393Z,99045.38
2019-03-13T19:33:18.525Z,99056.83
2019-03-13T19:35:48.216Z,99073.31
2019-03-13T19:38:18.384Z,99063.26
2019-03-13T19:40:46.926Z,99064.23
2019-03-13T19:43:15.461Z,99062.05
2019-03-13T19:45:45.399Z,99062.24
2019-03-13T19:48:13.943Z,99072.85
2019-03-13T19:50:42.472Z,99073.83
2019-03-13T19:53:11.087Z,99080.92
2019-03-13T19:55:42.696Z,99077.94
2019-03-13T19:58:11.337Z,99083.31
2019-03-13T20:00:39.910Z,99072.20
2019-03-13T20:03:11.154Z,99081.61
2019-03-13T20:05:45.903Z,99079.42
2019-03-13T20:08:15.208Z,99087.53
2019-03-13T20:10:43.777Z,99081.25
2019-03-13T20:13:15.389Z,99089.53
2019-03-13T20:15:45.350Z,99081.11
2019-03-13T20:18:13.875Z,99089.13
2019-03-13T20:20:42.875Z,99081.90
2019-03-13T20:23:16.014Z,99093.70
2019-03-13T20:25:47.612Z,99094.91
2019-03-13T20:28:16.334Z,99096.76
2019-03-13T20:30:47.787Z,99100.80
2019-03-13T20:33:17.273Z,99108.39
2019-03-13T20:35:45.738Z,99114.13
2019-03-13T20:38:16.547Z,99113.27
2019-03-13T20:40:46.585Z,99126.56
2019-03-13T20:43:15.242Z,99121.80
2019-03-13T20:45:46.381Z,99123.33
2019-03-13T20:48:17.840Z,99127.58
2019-03-13T20:50:49.310Z,99137.83
2019-03-13T20:53:17.821Z,99135.98
2019-03-13T20:55:46.306Z,99131.44
2019-03-13T20:58:16.572Z,99157.03
2019-03-13T21:03:17.925Z,99148.02
2019-03-13T21:05:46.707Z,99154.45
2019-03-13T21:08:17.491Z,99155.80
2019-03-13T21:10:46.149Z,99154.79
2019-03-13T21:13:16.138Z,99159.23
2019-03-13T21:15:44.638Z,99162.57
2019-03-13T21:18:14.646Z,99170.64
2019-03-13T21:20:43.135Z,99172.67
2019-03-13T21:23:11.632Z,99176.71
2019-03-13T21:25:40.093Z,99174.02
2019-03-13T21:28:08.567Z,99184.97
2019-03-13T21:30:37.147Z,99185.84
2019-03-13T21:33:05.608Z,99196.88
2019-03-13T21:35:34.216Z,99208.20
2019-03-13T21:38:07.012Z,99205.51
2019-03-13T21:40:35.514Z,99214.92
2019-03-13T21:43:06.728Z,99229.36
2019-03-13T21:45:40.985Z,99228.70
2019-03-13T21:48:05.428Z,99237.64
2019-03-13T21:50:33.914Z,99244.56
2019-03-13T21:53:02.717Z,99254.77
2019-03-13T21:55:31.114Z,99255.27
2019-03-13T21:57:59.607Z,99263.20
2019-03-13T22:00:30.543Z,99266.08
2019-03-13T22:03:03.866Z,99276.00
2019-03-13T22:05:32.316Z,99290.80
2019-03-13T22:08:01.896Z,99287.60
2019-03-13T22:10:32.024Z,99294.47
2019-03-13T22:13:02.258Z,99294.47
2019-03-13T22:15:33.784Z,99303.38
2019-03-13T22:18:02.383Z,99315.20
2019-03-13T22:20:33.151Z,99327.59
2019-03-13T22:23:01.635Z,99326.56
2019-03-13T22:25:32.086Z,99345.39
2019-03-13T22:28:00.566Z,99351.61
2019-03-13T22:30:29.252Z,99354.44
2019-03-13T22:32:57.932Z,99362.82
2019-03-13T22:35:26.625Z,99362.31
2019-03-13T22:37:55.166Z,99367.55
2019-03-13T22:40:25.247Z,99359.91
2019-03-13T22:42:53.815Z,99373.35
2019-03-13T22:45:29.895Z,99384.81
2019-03-13T22:47:58.936Z,99394.23
2019-03-13T22:50:27.397Z,99403.39
2019-03-13T22:53:03.548Z,99395.38
2019-03-13T22:55:33.186Z,99402.23
2019-03-13T22:58:01.749Z,99402.88
2019-03-13T23:00:51.888Z,99404.36
2019-03-13T23:03:22.503Z,99403.19
2019-03-13T23:05:51.438Z,99434.45
2019-03-13T23:08:20.776Z,99436.94
2019-03-13T23:10:50.902Z,99438.80
2019-03-13T23:13:20.360Z,99447.78
2019-03-13T23:15:48.987Z,99451.37
2019-03-13T23:18:18.543Z,99444.95
2019-03-13T23:20:47.279Z,99445.59
2019-03-13T23:23:15.831Z,99452.45
2019-03-13T23:25:44.476Z,99452.65
2019-03-13T23:28:16.150Z,99457.69
2019-03-13T23:30:44.636Z,99457.97
2019-03-13T23:33:13.277Z,99463.71
2019-03-13T23:35:41.815Z,99476.42
2019-03-13T23:38:10.409Z,99477.63
2019-03-13T23:40:41.762Z,99475.95
2019-03-13T23:43:11.390Z,99489.86
2019-03-13T23:45:39.905Z,99488.75
2019-03-13T23:48:09.201Z,99495.11
2019-03-13T23:50:37.681Z,99506.88
2019-03-13T23:53:07.727Z,99505.02
2019-03-13T23:55:38.512Z,99506.30
2019-03-13T23:58:11.340Z,99508.85
